Time;durP1;ratioP1;P1;durP2;ratioP2;P2;SDS_P1;SDS_P2;PMS_P1;PMS_P2;Temp;Humidity;BMP_temperature;BMP_pressure;BME280_temperature;BME280_humidity;BME280_pressure;Samples;Min_cycle;Max_cycle;Signal;HPM_P1;HPM_P2
2022/02/26 00:00:06;;;;;;;26.90;11.10;;;;;;;3.25;75.84;99354.99;25219;1305;3026840;-63
2022/02/26 00:02:38;;;;;;;31.10;12.70;;;;;;;3.01;75.96;99363.89;25225;1305;3026566;-64
2022/02/26 00:05:07;;;;;;;28.70;11.50;;;;;;;2.83;76.90;99367.04;25227;1306;3026527;-63
2022/02/26 00:07:37;;;;;;;62.40;14.20;;;;;;;2.69;76.91;99370.73;25214;1306;3052080;-64
2022/02/26 00:10:08;;;;;;;37.00;13.40;;;;;;;2.45;78.01;99365.70;25150;1305;3026429;-62
2022/02/26 00:12:56;;;;;;;34.40;12.20;;;;;;;2.50;78.32;99362.64;25182;1306;3056506;-62
2022/02/26 00:15:25;;;;;;;27.10;10.80;;;;;;;2.94;77.50;99359.77;25194;1305;3026106;-65
2022/02/26 00:17:57;;;;;;;32.80;11.80;;;;;;;3.30;75.64;99352.74;25203;1305;3054641;-65
2022/02/26 00:20:27;;;;;;;28.30;11.60;;;;;;;3.31;75.14;99351.17;25202;1305;3026563;-65
2022/02/26 00:22:55;;;;;;;31.60;12.30;;;;;;;2.93;75.90;99348.90;25190;1305;3026470;-63
2022/02/26 00:25:24;;;;;;;29.50;11.70;;;;;;;2.48;77.54;99350.60;25237;1305;3054303;-66
2022/02/26 00:27:53;;;;;;;28.20;12.00;;;;;;;2.30;78.51;99350.45;25197;1305;3029022;-64
2022/02/26 00:30:24;;;;;;;34.70;13.10;;;;;;;2.35;78.55;99351.84;25193;1305;3051764;-61
2022/02/26 00:32:52;;;;;;;32.90;13.20;;;;;;;2.14;78.86;99350.34;25206;1305;3026035;-64
2022/02/26 00:35:21;;;;;;;19.30;8.50;;;;;;;1.92;80.08;99354.23;25205;1305;3048678;-62
2022/02/26 00:37:50;;;;;;;24.80;10.80;;;;;;;2.30;79.10;99349.22;25296;1305;3026985;-65
2022/02/26 00:40:21;;;;;;;29.60;11.80;;;;;;;2.86;77.06;99346.69;25323;1305;3071550;-62
2022/02/26 00:42:50;;;;;;;24.40;10.40;;;;;;;2.97;76.37;99348.59;25249;1305;3027965;-63
2022/02/26 00:45:19;;;;;;;24.80;10.50;;;;;;;2.88;76.21;99352.87;25209;1305;3026880;-64
2022/02/26 00:47:49;;;;;;;24.70;10.80;;;;;;;2.61;76.90;99351.27;25263;1305;3071060;-64
2022/02/26 00:50:19;;;;;;;24.90;11.10;;;;;;;2.35;77.72;99353.21;25234;1305;3029791;-63
2022/02/26 00:52:48;;;;;;;28.80;11.20;;;;;;;2.32;77.88;99349.86;25207;1305;3026504;-63
2022/02/26 00:55:17;;;;;;;20.10;9.60;;;;;;;1.99;79.15;99349.21;25234;1306;3070720;-62
2022/02/26 00:57:46;;;;;;;21.60;8.10;;;;;;;1.80;79.91;99343.33;25201;1305;3028066;-64
2022/02/26 01:00:15;;;;;;;23.20;9.30;;;;;;;2.48;79.26;99345.40;25199;1305;3053176;-62
2022/02/26 01:02:46;;;;;;;21.10;9.70;;;;;;;3.02;76.38;99340.48;25233;1305;3026676;-63
2022/02/26 01:05:15;;;;;;;22.00;9.80;;;;;;;2.95;75.91;99336.73;25234;1305;3026446;-63
2022/02/26 01:07:46;;;;;;;21.90;9.10;;;;;;;2.70;76.10;99340.78;25257;1305;3027667;-63
2022/02/26 01:10:16;;;;;;;21.60;9.40;;;;;;;2.32;77.63;99338.79;25242;1306;3026808;-65
2022/02/26 01:12:45;;;;;;;20.50;9.70;;;;;;;2.12;78.82;99341.94;25243;1305;3026888;-63
2022/02/26 01:15:13;;;;;;;22.90;10.50;;;;;;;2.13;78.84;99342.81;25209;1306;3052519;-65
2022/02/26 01:17:43;;;;;;;25.70;9.10;;;;;;;1.95;79.49;99339.47;25210;1306;3028230;-65
2022/02/26 01:20:11;;;;;;;20.80;8.60;;;;;;;1.81;79.91;99340.88;25220;1305;3028240;-63
2022/02/26 01:22:41;;;;;;;17.90;8.80;;;;;;;2.24;79.01;99338.48;25197;1306;3055084;-63
2022/02/26 01:25:10;;;;;;;18.00;8.50;;;;;;;2.47;77.79;99337.98;25242;1305;3029985;-65
2022/02/26 01:27:40;;;;;;;19.40;8.70;;;;;;;2.52;77.22;99338.20;25219;1305;3048573;-63
2022/02/26 01:30:10;;;;;;;22.70;10.90;;;;;;;2.17;78.18;99346.14;25200;1305;3026213;-63
2022/02/26 01:32:42;;;;;;;24.10;11.70;;;;;;;1.90;79.21;99346.88;25198;1306;3026454;-64
2022/02/26 01:35:11;;;;;;;22.90;10.80;;;;;;;1.75;80.22;99348.13;25213;1305;3026378;-63
2022/02/26 01:37:41;;;;;;;26.10;12.20;;;;;;;1.70;79.98;99348.92;25173;1305;3026536;-63
2022/02/26 01:40:11;;;;;;;18.70;8.00;;;;;;;1.57;80.83;99348.23;25238;1305;3026522;-62
2022/02/26 01:42:40;;;;;;;22.90;9.80;;;;;;;2.08;79.68;99341.70;25259;1305;3057378;-64
2022/02/26 01:45:14;;;;;;;19.80;10.40;;;;;;;2.56;77.74;99336.89;25187;1305;3026755;-65
2022/02/26 01:47:44;;;;;;;26.40;12.50;;;;;;;2.56;76.84;99337.58;25267;1305;3051666;-63
2022/02/26 01:50:15;;;;;;;27.60;11.90;;;;;;;2.45;77.20;99342.39;25217;1305;3026942;-63
2022/02/26 01:52:43;;;;;;;30.80;12.60;;;;;;;2.18;77.95;99343.50;25217;1305;3050985;-64
2022/02/26 01:55:12;;;;;;;23.10;11.20;;;;;;;2.10;78.32;99344.08;25241;1306;3026876;-63
2022/02/26 01:57:44;;;;;;;25.00;10.60;;;;;;;1.80;79.31;99342.28;25212;1306;3047793;-62
2022/02/26 02:00:14;;;;;;;28.90;12.30;;;;;;;1.62;80.48;99348.13;25171;1306;3026178;-64
2022/02/26 02:02:44;;;;;;;24.80;11.70;;;;;;;2.01;79.82;99347.61;25241;1305;3026658;-65
2022/02/26 02:05:14;;;;;;;23.70;11.70;;;;;;;2.39;77.81;99345.69;25252;1306;3027079;-63
2022/02/26 02:07:42;;;;;;;29.10;12.50;;;;;;;2.61;77.07;99347.63;25201;1305;3026629;-62
2022/02/26 02:10:12;;;;;;;28.10;13.30;;;;;;;2.37;77.34;99350.06;25178;1306;3055047;-64
2022/02/26 02:12:41;;;;;;;27.40;11.80;;;;;;;2.33;77.73;99352.77;25125;1309;3026221;-64
2022/02/26 02:15:10;;;;;;;30.40;12.10;;;;;;;1.89;78.23;99355.00;25223;1305;3026661;-63
2022/02/26 02:17:42;;;;;;;31.00;12.70;;;;;;;1.70;79.28;99356.39;25239;1306;3053223;-63
2022/02/26 02:20:11;;;;;;;30.60;11.60;;;;;;;1.55;79.99;99357.10;25194;1306;3026509;-62
2022/02/26 02:22:42;;;;;;;25.40;11.00;;;;;;;2.12;78.76;99368.02;25246;1305;3055106;-64
2022/02/26 02:25:11;;;;;;;26.00;12.50;;;;;;;2.38;77.37;99368.50;25202;1305;3026327;-64
2022/02/26 02:27:40;;;;;;;24.90;10.70;;;;;;;2.28;77.25;99374.68;25180;1307;3028646;-65
2022/02/26 02:30:11;;;;;;;26.30;13.00;;;;;;;1.98;77.80;99374.29;25183;1306;3055660;-63
2022/02/26 02:32:40;;;;;;;31.60;14.10;;;;;;;1.75;79.52;99373.17;25233;1305;3028387;-65
2022/02/26 02:35:31;;;;;;;33.10;15.10;;;;;;;1.49;80.48;99374.86;25194;1305;3026512;-64
2022/02/26 02:38:15;;;;;;;37.20;16.40;;;;;;;1.54;80.52;99376.98;25198;1305;3052443;-62
2022/02/26 02:40:46;;;;;;;24.80;11.10;;;;;;;1.50;80.68;99384.33;25228;1305;3054305;-62
2022/02/26 02:43:16;;;;;;;33.40;14.90;;;;;;;1.97;79.42;99382.41;25177;1306;3026638;-63
2022/02/26 02:45:44;;;;;;;32.40;13.30;;;;;;;2.46;77.38;99382.45;25229;1305;3026809;-64
2022/02/26 02:48:15;;;;;;;39.30;15.30;;;;;;;2.29;77.19;99377.76;25198;1306;3026543;-64
2022/02/26 02:50:44;;;;;;;38.30;16.40;;;;;;;2.18;77.55;99379.80;25210;1305;3055759;-65
2022/02/26 02:53:17;;;;;;;37.70;15.90;;;;;;;2.16;77.71;99375.53;25174;1305;3027089;-62
2022/02/26 02:55:48;;;;;;;38.50;16.10;;;;;;;1.88;78.50;99375.77;25206;1306;3027593;-63
2022/02/26 02:58:23;;;;;;;40.50;17.40;;;;;;;1.65;79.48;99380.84;25202;1306;3026571;-64
2022/02/26 03:00:53;;;;;;;31.50;13.20;;;;;;;1.68;79.91;99376.79;25252;1308;3071427;-64
2022/02/26 03:03:22;;;;;;;37.90;15.00;;;;;;;2.16;78.90;99376.04;25280;1306;3026578;-61
2022/02/26 03:05:52;;;;;;;37.80;15.60;;;;;;;2.77;76.64;99375.70;25243;1305;3027171;-64
2022/02/26 03:08:24;;;;;;;36.20;15.40;;;;;;;2.72;76.12;99379.99;25208;1306;3026299;-62
2022/02/26 03:10:54;;;;;;;40.20;16.80;;;;;;;2.46;76.99;99384.72;25193;1306;3027947;-62
2022/02/26 03:13:25;;;;;;;40.40;17.40;;;;;;;2.23;77.27;99383.10;25212;1305;3026186;-63
2022/02/26 03:15:54;;;;;;;38.50;17.00;;;;;;;2.40;77.00;99381.95;25203;1305;3026349;-62
2022/02/26 03:18:43;;;;;;;39.80;17.20;;;;;;;2.08;77.41;99382.13;25177;1306;3053498;-64
2022/02/26 03:21:12;;;;;;;42.80;17.60;;;;;;;2.09;77.55;99384.35;25180;1305;3026642;-65
2022/02/26 03:23:41;;;;;;;33.70;12.70;;;;;;;1.77;78.92;99389.34;25172;1305;3055156;-64
2022/02/26 03:26:10;;;;;;;44.00;16.90;;;;;;;2.25;78.13;99386.15;25208;1305;3025954;-64
2022/02/26 03:28:39;;;;;;;39.40;16.40;;;;;;;2.66;76.30;99389.85;25161;1305;3026767;-63
2022/02/26 03:31:09;;;;;;;34.10;15.40;;;;;;;2.71;76.00;99382.95;25174;1305;3052579;-65
2022/02/26 03:33:38;;;;;;;41.00;15.60;;;;;;;2.52;76.16;99388.17;25223;1306;3026657;-63
2022/02/26 03:36:07;;;;;;;39.90;17.80;;;;;;;2.42;76.53;99389.51;25137;1305;3027233;-62
2022/02/26 03:38:38;;;;;;;42.80;18.10;;;;;;;2.10;77.45;99386.41;25217;1305;3054784;-64
2022/02/26 03:41:08;;;;;;;40.30;17.90;;;;;;;1.86;78.68;99389.30;25163;1305;3027353;-64
2022/02/26 03:43:38;;;;;;;42.90;16.90;;;;;;;1.70;79.34;99393.15;25120;1305;3026230;-63
2022/02/26 03:46:08;;;;;;;27.10;11.40;;;;;;;1.64;79.91;99394.32;25182;1305;3026972;-64
2022/02/26 03:48:38;;;;;;;37.50;15.30;;;;;;;2.02;78.97;99391.62;25171;1305;3026071;-64
2022/02/26 03:51:10;;;;;;;38.80;15.10;;;;;;;2.38;77.58;99398.59;25170;1305;3070950;-62
2022/02/26 03:53:38;;;;;;;36.90;16.20;;;;;;;2.51;76.55;99402.74;25194;1305;3027028;-65
2022/02/26 03:56:07;;;;;;;39.60;17.30;;;;;;;2.33;76.96;99403.40;25142;1305;3028592;-64
2022/02/26 03:58:37;;;;;;;38.90;16.20;;;;;;;1.92;78.03;99408.12;25162;1305;3070640;-63
2022/02/26 04:01:06;;;;;;;39.20;17.50;;;;;;;1.53;79.55;99409.45;25232;1305;3026534;-65
2022/02/26 04:03:36;;;;;;;37.70;16.50;;;;;;;1.38;80.71;99406.89;25243;1306;3026795;-64
2022/02/26 04:06:06;;;;;;;38.70;15.10;;;;;;;1.26;81.30;99419.08;25194;1306;3026605;-64
2022/02/26 04:08:35;;;;;;;38.00;15.00;;;;;;;1.81;80.42;99418.43;25227;1305;3026316;-63
2022/02/26 04:11:04;;;;;;;39.80;16.50;;;;;;;2.24;78.23;99420.59;25209;1306;3054320;-64
2022/02/26 04:13:35;;;;;;;40.40;15.10;;;;;;;2.18;77.82;99422.30;25207;1306;3026434;-63
2022/02/26 04:16:04;;;;;;;40.90;17.30;;;;;;;1.87;78.39;99427.95;25232;1305;3027137;-64
2022/02/26 04:18:34;;;;;;;37.70;15.10;;;;;;;1.71;79.27;99442.84;25190;1306;3026389;-64
2022/02/26 04:21:03;;;;;;;39.30;15.70;;;;;;;1.47;80.49;99451.54;25201;1305;3026498;-63
2022/02/26 04:23:32;;;;;;;38.10;16.40;;;;;;;1.39;80.67;99450.86;25201;1305;3055610;-63
2022/02/26 04:26:03;;;;;;;28.60;11.80;;;;;;;1.34;81.56;99448.22;25217;1305;3027000;-62
2022/02/26 04:28:35;;;;;;;37.50;16.10;;;;;;;2.01;80.32;99447.48;25227;1305;3026836;-63
2022/02/26 04:31:05;;;;;;;38.60;16.60;;;;;;;2.44;77.69;99456.34;25220;1306;3056504;-64
2022/02/26 04:33:34;;;;;;;35.20;15.10;;;;;;;2.26;77.82;99458.55;25222;1305;3026816;-63
2022/02/26 04:36:03;;;;;;;43.40;18.00;;;;;;;1.98;78.12;99466.55;25186;1305;3026722;-65
2022/02/26 04:38:35;;;;;;;49.10;20.10;;;;;;;1.71;79.59;99468.77;25219;1306;3058238;-63
2022/02/26 04:41:05;;;;;;;49.10;20.20;;;;;;;1.58;80.31;99478.59;25246;1306;3026892;-64
2022/02/26 04:43:35;;;;;;;44.90;18.90;;;;;;;1.43;80.86;99474.08;25257;1305;3026200;-64
2022/02/26 04:46:04;;;;;;;40.80;16.60;;;;;;;1.31;81.41;99473.52;25250;1305;3027076;-64
2022/02/26 04:48:33;;;;;;;37.90;16.20;;;;;;;1.71;80.67;99473.79;25196;1305;3027108;-63
2022/02/26 04:51:06;;;;;;;46.00;16.70;;;;;;;2.19;78.71;99472.93;25245;1305;3055001;-64
2022/02/26 04:53:36;;;;;;;49.40;17.90;;;;;;;2.09;78.03;99472.49;25229;1308;3050489;-63
2022/02/26 04:56:06;;;;;;;49.80;20.20;;;;;;;1.96;78.57;99471.44;25130;1306;3027151;-63
2022/02/26 04:58:35;;;;;;;47.60;19.60;;;;;;;1.64;79.61;99477.23;25244;1305;3026593;-63
2022/02/26 05:01:04;;;;;;;39.40;16.40;;;;;;;1.61;79.55;99478.66;25202;1305;3026931;-64
2022/02/26 05:03:34;;;;;;;48.60;18.20;;;;;;;1.45;80.38;99481.13;25241;1305;3069243;-63
2022/02/26 05:06:08;;;;;;;49.00;17.60;;;;;;;1.33;81.13;99487.62;25276;1306;3051910;-64
2022/02/26 05:08:37;;;;;;;43.40;17.90;;;;;;;1.88;79.99;99484.77;25198;1306;3028563;-63
2022/02/26 05:11:06;;;;;;;47.60;19.20;;;;;;;2.19;78.08;99487.79;25205;1306;3026516;-63
2022/02/26 05:13:55;;;;;;;46.80;18.60;;;;;;;2.07;77.93;99483.59;25257;1306;3051573;-63
2022/02/26 05:16:24;;;;;;;43.40;17.30;;;;;;;1.89;78.45;99492.34;25239;1305;3026117;-63
2022/02/26 05:18:52;;;;;;;50.60;19.80;;;;;;;1.63;79.40;99499.17;25255;1305;3026507;-64
2022/02/26 05:21:23;;;;;;;55.70;20.60;;;;;;;1.39;80.63;99506.11;25233;1305;3048699;-63
2022/02/26 05:23:52;;;;;;;47.40;17.40;;;;;;;1.19;81.00;99502.75;25251;1305;3026208;-63
2022/02/26 05:26:21;;;;;;;52.90;18.30;;;;;;;1.38;81.21;99496.80;25192;1305;3066680;-64
2022/02/26 05:28:50;;;;;;;50.30;19.70;;;;;;;1.83;79.60;99499.05;25272;1305;3026565;-64
2022/02/26 05:31:23;;;;;;;55.40;20.30;;;;;;;2.04;78.38;99503.39;25279;1305;3049853;-63
2022/02/26 05:33:53;;;;;;;;;;;;;;;1.89;78.29;99515.83;25213;1305;3070888;-64
2022/02/26 05:36:22;;;;;;;51.80;18.10;;;;;;;1.70;78.92;99516.98;25249;1306;3029150;-62
2022/02/26 05:38:50;;;;;;;55.40;19.40;;;;;;;1.50;79.64;99520.54;25262;1305;3053750;-62
2022/02/26 05:41:19;;;;;;;51.60;20.30;;;;;;;1.30;80.52;99526.52;25216;1306;3026215;-63
2022/02/26 05:43:48;;;;;;;43.20;15.90;;;;;;;1.26;81.08;99521.41;25263;1305;3052983;-63
2022/02/26 05:46:17;;;;;;;45.70;18.90;;;;;;;1.60;80.44;99523.23;25218;1306;3028736;-64
2022/02/26 05:48:48;;;;;;;44.30;17.90;;;;;;;2.04;78.41;99525.14;25217;1305;3051509;-64
2022/02/26 05:51:22;;;;;;;49.20;19.30;;;;;;;2.19;77.12;99527.52;25301;1306;3055551;-63
2022/02/26 05:53:51;;;;;;;41.50;16.60;;;;;;;1.90;77.80;99533.09;25226;1305;3030160;-64
2022/02/26 05:56:21;;;;;;;54.50;19.80;;;;;;;1.80;78.43;99530.38;25186;1305;3050219;-63
2022/02/26 05:58:50;;;;;;;54.70;20.20;;;;;;;1.70;78.69;99531.83;25261;1306;3026649;-65
2022/02/26 06:01:29;;;;;;;52.30;20.30;;;;;;;1.53;79.38;99532.21;25206;1306;3057044;-65
2022/02/26 06:04:02;;;;;;;43.90;17.80;;;;;;;1.45;79.73;99532.06;25284;1306;3026401;-63
2022/02/26 06:06:31;;;;;;;55.30;19.40;;;;;;;2.03;78.71;99535.86;25228;1306;3052055;-65
2022/02/26 06:09:00;;;;;;;50.60;17.40;;;;;;;2.46;76.48;99540.84;25261;1305;3028819;-63
2022/02/26 06:11:28;;;;;;;46.30;16.50;;;;;;;2.36;76.31;99538.33;23190;1306;10374313;-63
2022/02/26 06:13:57;;;;;;;51.60;18.40;;;;;;;2.26;76.15;99547.56;25181;1306;3026239;-64
2022/02/26 06:16:26;;;;;;;54.10;19.80;;;;;;;2.13;76.78;99546.84;25284;1305;3055224;-63
2022/02/26 06:18:55;;;;;;;44.90;17.80;;;;;;;1.97;77.42;99546.39;25209;1305;3025969;-63
2022/02/26 06:21:31;;;;;;;51.70;18.90;;;;;;;1.80;77.61;99550.43;25204;1306;3048123;-64
2022/02/26 06:24:00;;;;;;;;;;;;;;;1.67;78.45;99563.84;25271;1305;3053661;-65
2022/02/26 06:26:29;;;;;;;43.50;16.40;;;;;;;1.58;78.76;99574.04;25172;1305;3030050;-64
2022/02/26 06:28:58;;;;;;;47.10;16.80;;;;;;;1.51;79.31;99578.17;25199;1305;3049349;-64
2022/02/26 06:31:27;;;;;;;44.30;18.10;;;;;;;2.03;78.14;99578.38;25175;1305;3028983;-64
2022/02/26 06:33:56;;;;;;;45.30;16.00;;;;;;;2.25;76.79;99577.84;25198;1306;3058449;-64
2022/02/26 06:36:25;;;;;;;45.60;18.70;;;;;;;2.20;76.75;99582.48;25158;1306;3026554;-63
2022/02/26 06:38:54;;;;;;;47.70;18.00;;;;;;;2.10;76.99;99577.35;25258;1305;3053345;-64
2022/02/26 06:41:23;;;;;;;49.10;18.90;;;;;;;1.98;77.18;99583.67;25225;1305;3026472;-64
2022/02/26 06:43:52;;;;;;;48.30;18.80;;;;;;;1.73;78.20;99583.39;25259;1306;3054698;-64
2022/02/26 06:46:21;;;;;;;41.30;16.90;;;;;;;1.58;79.05;99589.41;25186;1305;3026521;-64
2022/02/26 06:48:55;;;;;;;37.50;14.20;;;;;;;1.66;78.87;99586.50;25166;1306;3048613;-63
2022/02/26 06:51:25;;;;;;;39.20;15.00;;;;;;;2.05;77.51;99601.49;25218;1306;3026787;-65
2022/02/26 06:53:53;;;;;;;37.30;14.40;;;;;;;2.13;76.61;99594.90;25216;1306;3026308;-63
2022/02/26 06:56:28;;;;;;;38.70;16.10;;;;;;;2.34;76.14;99598.37;25190;1306;3048811;-64
2022/02/26 06:58:57;;;;;;;39.10;16.00;;;;;;;2.11;76.46;99597.36;25214;1306;3053469;-63
2022/02/26 07:01:26;;;;;;;38.60;14.40;;;;;;;2.03;76.83;99597.21;25277;1306;3028235;-63
2022/02/26 07:03:54;;;;;;;36.70;14.40;;;;;;;1.84;77.11;99600.94;25236;1306;3050858;-65
2022/02/26 07:06:23;;;;;;;45.10;17.60;;;;;;;1.73;78.00;99599.63;25220;1306;3028774;-64
2022/02/26 07:08:53;;;;;;;27.40;10.70;;;;;;;1.69;78.84;99605.77;25119;1306;3071017;-64
2022/02/26 07:11:22;;;;;;;36.50;14.60;;;;;;;2.42;76.71;99596.96;25218;1306;3026698;-62
2022/02/26 07:14:16;;;;;;;34.40;14.80;;;;;;;2.67;75.44;99600.64;25205;1306;3052899;-64
2022/02/26 07:16:45;;;;;;;32.70;14.50;;;;;;;2.66;74.91;99608.45;25197;1306;3071694;-64
2022/02/26 07:19:15;;;;;;;27.60;11.60;;;;;;;2.50;75.22;99621.67;25195;1306;3026817;-63
2022/02/26 07:21:47;;;;;;;30.70;12.70;;;;;;;2.21;75.80;99623.23;25166;1307;3026412;-63
2022/02/26 07:24:16;;;;;;;28.60;13.00;;;;;;;2.09;76.63;99621.43;25158;1306;3027107;-63
2022/02/26 07:26:47;;;;;;;30.20;12.50;;;;;;;1.97;77.22;99619.98;25147;1306;3048729;-64
2022/02/26 07:29:16;;;;;;;24.80;11.80;;;;;;;1.75;78.31;99617.91;25215;1308;3026341;-64
2022/02/26 07:31:45;;;;;;;20.70;9.20;;;;;;;1.62;78.28;99622.48;25180;1306;3070642;-63
2022/02/26 07:35:18;;;;;;;28.10;12.50;;;;;;;2.41;76.84;99620.32;31484;1313;3026391;-65
2022/02/26 07:37:47;;;;;;;32.20;16.30;;;;;;;2.98;74.32;99615.04;25027;1313;3028676;-63
2022/02/26 07:40:16;;;;;;;27.90;13.10;;;;;;;2.90;73.43;99617.86;25150;1313;3026660;-63
2022/02/26 07:42:48;;;;;;;28.60;12.10;;;;;;;2.58;74.71;99625.98;25047;1313;3048723;-64
2022/02/26 07:45:17;;;;;;;24.80;11.40;;;;;;;2.51;75.33;99626.66;25089;1312;3027210;-64
2022/02/26 07:47:49;;;;;;;24.80;11.40;;;;;;;2.10;76.04;99632.81;22501;1313;13401828;-65
2022/02/26 07:50:43;;;;;;;29.40;15.30;;;;;;;2.09;77.19;99625.92;25065;1313;3051848;-63
2022/02/26 07:53:12;;;;;;;23.70;11.00;;;;;;;2.59;75.36;99628.17;25168;1313;3027314;-62
2022/02/26 07:55:41;;;;;;;26.50;12.10;;;;;;;2.58;75.01;99624.73;25086;1313;3049084;-65
2022/02/26 07:58:10;;;;;;;31.80;13.50;;;;;;;2.47;75.45;99630.21;25137;1310;3026913;-63
2022/02/26 08:00:39;;;;;;;32.00;13.30;;;;;;;2.31;76.22;99631.46;25122;1313;3058303;-63
2022/02/26 08:03:33;;;;;;;25.30;12.10;;;;;;;2.14;76.52;99639.64;25129;1310;3052279;-64
2022/02/26 08:06:54;;;;;;;25.70;12.00;;;;;;;1.94;77.52;99639.23;25197;1310;3026485;-64
2022/02/26 08:09:23;;;;;;;29.60;12.10;;;;;;;1.75;78.53;99644.84;25091;1313;3056390;-64
2022/02/26 08:11:52;;;;;;;26.00;11.00;;;;;;;2.16;77.33;99631.80;25165;1310;3026255;-63
2022/02/26 08:14:21;;;;;;;30.80;13.60;;;;;;;2.40;76.51;99638.67;25078;1313;3054680;-64
2022/02/26 08:16:52;;;;;;;31.30;12.00;;;;;;;2.14;76.88;99645.52;25114;1313;3026541;-63
2022/02/26 08:19:20;;;;;;;32.60;12.40;;;;;;;2.04;77.48;99644.02;25125;1309;3026738;-63
2022/02/26 08:21:49;;;;;;;31.60;12.70;;;;;;;1.97;77.48;99640.19;25151;1313;3051203;-63
2022/02/26 08:24:23;;;;;;;32.90;14.20;;;;;;;1.70;78.78;99649.75;25129;1312;3058604;-67
2022/02/26 08:26:52;;;;;;;28.70;12.60;;;;;;;1.70;79.18;99645.11;25128;1313;3026435;-63
2022/02/26 08:29:21;;;;;;;24.40;10.20;;;;;;;1.60;79.34;99643.43;25130;1313;3054613;-65
2022/02/26 08:31:52;;;;;;;25.30;11.00;;;;;;;1.97;78.69;99645.37;25153;1313;3029041;-64
2022/02/26 08:34:22;;;;;;;27.60;10.80;;;;;;;2.33;77.39;99640.57;25142;1313;3028588;-67
2022/02/26 08:36:53;;;;;;;25.40;11.60;;;;;;;2.21;76.85;99652.08;25138;1313;3051369;-64
2022/02/26 08:42:15;;;;;;;27.60;12.40;;;;;;;1.80;78.17;99643.67;25094;1313;3054685;-65
2022/02/26 08:44:44;;;;;;;29.30;12.30;;;;;;;1.59;79.55;99643.63;25148;1312;3026489;-65
2022/02/26 08:47:13;;;;;;;22.90;9.40;;;;;;;1.56;79.28;99640.40;25087;1311;3048869;-64
2022/02/26 08:49:42;;;;;;;23.90;11.70;;;;;;;1.54;79.41;99651.31;25133;1313;3030008;-66
2022/02/26 08:52:15;;;;;;;22.60;10.70;;;;;;;1.86;78.66;99651.84;25149;1313;3070650;-64
2022/02/26 08:54:44;;;;;;;24.50;10.30;;;;;;;2.04;77.96;99652.83;25128;1312;3026538;-64
2022/02/26 08:58:09;;;;;;;23.50;10.10;;;;;;;2.07;77.37;99652.08;25149;1313;3051925;-68
2022/02/26 09:00:38;;;;;;;31.40;11.30;;;;;;;1.83;78.31;99660.38;25157;1313;3069063;-68
2022/02/26 09:03:07;;;;;;;23.00;10.30;;;;;;;1.66;78.92;99661.94;25120;1313;3026461;-63
2022/02/26 09:05:36;;;;;;;26.20;12.60;;;;;;;1.59;79.18;99656.73;25209;1313;3051042;-62
2022/02/26 09:08:06;;;;;;;18.60;8.60;;;;;;;1.58;79.75;99659.86;25130;1313;3029191;-66
2022/02/26 09:10:37;;;;;;;26.20;11.80;;;;;;;2.14;78.56;99654.85;25160;1313;3026414;-64
2022/02/26 09:13:07;;;;;;;26.20;11.30;;;;;;;2.66;76.32;99651.86;25123;1313;3027183;-63
2022/02/26 09:15:36;;;;;;;25.10;12.60;;;;;;;2.76;75.32;99656.48;25148;1313;3026471;-65
2022/02/26 09:18:05;;;;;;;26.80;11.60;;;;;;;2.61;75.46;99654.58;25073;1313;3048376;-65
2022/02/26 09:20:34;;;;;;;23.80;12.40;;;;;;;2.35;76.58;99644.33;25099;1313;3028322;-63
2022/02/26 09:23:29;;;;;;;30.00;12.80;;;;;;;2.16;77.27;99645.12;25126;1313;3069390;-66
2022/02/26 09:25:58;;;;;;;25.00;11.70;;;;;;;2.01;78.06;99649.79;25164;1312;3026701;-65
2022/02/26 09:28:27;;;;;;;28.30;12.70;;;;;;;1.86;78.15;99656.85;25113;1313;3029491;-64
2022/02/26 09:33:51;;;;;;;23.90;11.30;;;;;;;2.48;76.67;99654.05;25093;1313;3051413;-64
2022/02/26 09:36:19;;;;;;;24.20;10.70;;;;;;;3.02;74.57;99654.93;25076;1312;3026392;-66
2022/02/26 09:38:48;;;;;;;24.10;10.90;;;;;;;3.16;73.46;99651.44;25149;1312;3072279;-67
2022/02/26 09:41:17;;;;;;;24.20;11.50;;;;;;;3.08;73.35;99653.55;25118;1313;3030508;-67
2022/02/26 09:43:54;;;;;;;21.50;10.00;;;;;;;2.68;74.10;99658.74;25142;1312;3050739;-64
2022/02/26 09:46:23;;;;;;;25.60;10.90;;;;;;;2.50;74.84;99658.31;25080;1312;3029639;-67
2022/02/26 09:49:43;;;;;;;27.70;13.10;;;;;;;2.38;75.16;99661.55;25139;1313;3026304;-65
2022/02/26 09:52:18;;;;;;;;;;;;;;;2.42;75.76;99665.61;25117;1312;3052691;-65
2022/02/26 09:54:48;;;;;;;32.50;14.20;;;;;;;2.43;75.36;99662.98;25136;1312;3026735;-68
2022/02/26 09:57:18;;;;;;;27.60;11.20;;;;;;;2.46;75.82;99660.50;25112;1313;3026730;-65
2022/02/26 09:59:47;;;;;;;27.50;13.60;;;;;;;2.82;74.90;99664.08;25128;1313;3027435;-66
2022/02/26 10:02:16;;;;;;;30.00;13.80;;;;;;;3.78;72.43;99655.75;25134;1311;3027286;-63
2022/02/26 10:05:06;;;;;;;34.20;14.60;;;;;;;3.63;71.49;99658.63;25121;1313;3058311;-63
2022/02/26 10:07:39;;;;;;;25.70;12.10;;;;;;;3.60;71.33;99659.56;25099;1313;3050015;-63
2022/02/26 10:10:15;;;;;;;23.70;11.30;;;;;;;3.34;72.11;99664.27;25179;1313;3029252;-63
2022/02/26 10:12:51;;;;;;;22.90;10.90;;;;;;;3.24;72.67;99667.66;25157;1313;3051185;-70
2022/02/26 10:15:23;;;;;;;24.70;12.10;;;;;;;3.05;73.22;99667.48;25148;1313;3029232;-65
2022/02/26 10:18:12;;;;;;;25.10;11.50;;;;;;;2.91;73.70;99669.23;25121;1313;3026884;-65
2022/02/26 10:20:45;;;;;;;25.20;11.70;;;;;;;2.86;74.27;99676.61;25195;1313;3052334;-63
2022/02/26 10:23:47;;;;;;;28.10;12.90;;;;;;;2.83;74.30;99679.12;25094;1311;3051650;-65
2022/02/26 10:26:23;;;;;;;23.70;9.20;;;;;;;2.61;75.12;99687.10;25084;1313;3058661;-64
2022/02/26 10:29:17;;;;;;;16.70;8.10;;;;;;;3.10;74.18;99681.35;25114;1313;3052258;-64
2022/02/26 10:31:58;;;;;;;20.70;9.90;;;;;;;3.35;72.64;99682.41;25099;1313;3056087;-65
2022/02/26 10:34:35;;;;;;;26.70;10.80;;;;;;;3.31;72.59;99679.25;25063;1312;3050749;-64
2022/02/26 10:37:17;;;;;;;17.60;9.50;;;;;;;3.34;72.66;99686.77;25087;1313;3071977;-65
2022/02/26 10:39:53;;;;;;;23.40;11.70;;;;;;;3.13;73.15;99689.60;25115;1312;3049598;-63
2022/02/26 10:49:44;;;;;;;24.10;12.10;;;;;;;3.09;73.09;99708.56;25195;1303;3054853;-67
2022/02/26 10:52:19;;;;;;;18.60;9.60;;;;;;;3.35;72.66;99708.23;25312;1304;3054196;-64
2022/02/26 10:54:51;;;;;;;18.60;8.90;;;;;;;3.54;71.70;99708.74;25212;1305;3026256;-64
2022/02/26 10:57:30;;;;;;;18.60;8.90;;;;;;;3.65;71.28;99710.88;24547;1303;13397954;-70
2022/02/26 10:59:59;;;;;;;24.00;13.50;;;;;;;3.99;70.30;99709.89;25434;1302;3026942;-64
2022/02/26 11:02:29;;;;;;;26.10;11.80;;;;;;;4.01;69.75;99708.08;25316;1303;3051636;-71
2022/02/26 11:04:58;;;;;;;18.70;9.30;;;;;;;3.74;70.55;99701.77;25258;1304;3027014;-71
2022/02/26 11:07:27;;;;;;;17.50;9.10;;;;;;;3.59;71.24;99707.06;25390;1302;3026479;-70
2022/02/26 11:09:56;;;;;;;18.70;9.10;;;;;;;3.50;71.69;99705.59;25386;1304;3048214;-71
2022/02/26 11:12:27;;;;;;;18.90;8.70;;;;;;;3.32;72.50;99706.05;25584;1303;3026447;-64
2022/02/26 11:18:19;;;;;;;13.10;7.40;;;;;;;3.35;73.13;99709.78;25539;1299;3049415;-76
2022/02/26 11:21:15;;;;;;;13.20;6.40;;;;;;;4.06;71.20;99709.87;25167;1312;3053048;-71
2022/02/26 11:24:19;;;;;;;12.10;5.80;;;;;;;4.16;70.08;99714.08;25210;1310;3055048;-69
2022/02/26 11:26:49;;;;;;;14.80;6.50;;;;;;;4.14;69.62;99717.23;25181;1311;3056296;-69
2022/02/26 11:29:20;;;;;;;15.10;6.30;;;;;;;4.05;69.79;99717.69;25194;1310;3026992;-66
2022/02/26 11:31:58;;;;;;;16.20;7.20;;;;;;;3.71;70.78;99720.58;25199;1311;3026797;-69
2022/02/26 11:34:27;;;;;;;14.00;7.10;;;;;;;3.74;71.11;99723.27;25997;1310;3050907;-71
2022/02/26 11:36:58;;;;;;;15.00;7.80;;;;;;;3.62;71.56;99726.02;25978;1310;3026512;-70
2022/02/26 11:39:48;;;;;;;15.30;8.20;;;;;;;3.65;71.44;99736.67;25175;1310;3051669;-65
2022/02/26 11:42:23;;;;;;;18.30;9.40;;;;;;;3.60;71.99;99739.40;25343;1311;3053512;-66
2022/02/26 11:45:03;;;;;;;18.00;8.00;;;;;;;3.46;72.82;99742.71;25819;1310;3068842;-63
2022/02/26 11:47:45;;;;;;;15.40;8.80;;;;;;;3.05;73.79;99749.68;25431;1310;3047447;-63
2022/02/26 11:50:33;;;;;;;16.60;6.90;;;;;;;2.96;74.58;99749.91;25072;1311;3054859;-65